sensor_id;sensor_type;location;lat;lon;timestamp;P1;durP1;ratioP1;P2;durP2;ratioP2
35330;SDS011;21441;52.190;20.910;2022-07-11T00:01:36;3.47;;;3.00;;
35330;SDS011;21441;52.190;20.910;2022-07-11T00:04:04;5.95;;;3.30;;
35330;SDS011;21441;52.190;20.910;2022-07-11T00:06:32;4.82;;;3.45;;
35330;SDS011;21441;52.190;20.910;2022-07-11T00:08:59;3.97;;;3.30;;
35330;SDS011;21441;52.190;20.910;2022-07-11T00:11:25;7.38;;;3.42;;
35330;SDS011;21441;52.190;20.910;2022-07-11T00:13:52;5.20;;;3.28;;
35330;SDS011;21441;52.190;20.910;2022-07-11T00:16:19;7.78;;;3.72;;
35330;SDS011;21441;52.190;20.910;2022-07-11T00:18:46;6.07;;;2.70;;
35330;SDS011;21441;52.190;20.910;2022-07-11T00:21:14;4.95;;;3.10;;
35330;SDS011;21441;52.190;20.910;2022-07-11T00:23:41;5.75;;;3.00;;
35330;SDS011;21441;52.190;20.910;2022-07-11T00:26:08;4.07;;;2.58;;
35330;SDS011;21441;52.190;20.910;2022-07-11T00:28:35;3.58;;;3.10;;
35330;SDS011;21441;52.190;20.910;2022-07-11T00:31:02;8.20;;;2.88;;
35330;SDS011;21441;52.190;20.910;2022-07-11T00:33:29;8.07;;;3.80;;
35330;SDS011;21441;52.190;20.910;2022-07-11T00:35:56;7.57;;;3.65;;
35330;SDS011;21441;52.190;20.910;2022-07-11T00:38:24;8.98;;;3.53;;
35330;SDS011;21441;52.190;20.910;2022-07-11T00:40:51;5.60;;;3.22;;
35330;SDS011;21441;52.190;20.910;2022-07-11T00:43:18;8.07;;;3.35;;
35330;SDS011;21441;52.190;20.910;2022-07-11T00:45:47;6.13;;;3.60;;
35330;SDS011;21441;52.190;20.910;2022-07-11T00:48:14;7.40;;;3.00;;
35330;SDS011;21441;52.190;20.910;2022-07-11T00:50:40;5.65;;;3.67;;
35330;SDS011;21441;52.190;20.910;2022-07-11T00:53:07;6.25;;;4.10;;
35330;SDS011;21441;52.190;20.910;2022-07-11T00:55:36;5.85;;;3.20;;
35330;SDS011;21441;52.190;20.910;2022-07-11T00:58:03;6.60;;;3.83;;
35330;SDS011;21441;52.190;20.910;2022-07-11T01:00:29;5.38;;;3.17;;
35330;SDS011;21441;52.190;20.910;2022-07-11T01:02:56;9.32;;;3.80;;
35330;SDS011;21441;52.190;20.910;2022-07-11T01:05:23;6.70;;;3.47;;
35330;SDS011;21441;52.190;20.910;2022-07-11T01:07:50;7.13;;;3.72;;
35330;SDS011;21441;52.190;20.910;2022-07-11T01:10:17;3.63;;;3.13;;
35330;SDS011;21441;52.190;20.910;2022-07-11T01:12:45;6.38;;;3.47;;
35330;SDS011;21441;52.190;20.910;2022-07-11T01:15:13;4.45;;;3.50;;
35330;SDS011;21441;52.190;20.910;2022-07-11T01:17:40;8.55;;;3.80;;
35330;SDS011;21441;52.190;20.910;2022-07-11T01:20:07;8.45;;;3.67;;
35330;SDS011;21441;52.190;20.910;2022-07-11T01:22:36;5.20;;;3.13;;
35330;SDS011;21441;52.190;20.910;2022-07-11T01:25:10;6.45;;;3.53;;
35330;SDS011;21441;52.190;20.910;2022-07-11T01:27:55;7.40;;;4.32;;
35330;SDS011;21441;52.190;20.910;2022-07-11T01:30:22;6.00;;;4.05;;
35330;SDS011;21441;52.190;20.910;2022-07-11T01:32:50;6.40;;;4.05;;
35330;SDS011;21441;52.190;20.910;2022-07-11T01:35:17;7.70;;;3.88;;
35330;SDS011;21441;52.190;20.910;2022-07-11T01:37:44;8.27;;;3.83;;
35330;SDS011;21441;52.190;20.910;2022-07-11T01:40:12;6.07;;;5.00;;
35330;SDS011;21441;52.190;20.910;2022-07-11T01:42:39;7.00;;;4.47;;
35330;SDS011;21441;52.190;20.910;2022-07-11T01:45:06;10.50;;;6.63;;
35330;SDS011;21441;52.190;20.910;2022-07-11T01:47:34;6.38;;;5.22;;
35330;SDS011;21441;52.190;20.910;2022-07-11T01:50:01;8.30;;;4.57;;
35330;SDS011;21441;52.190;20.910;2022-07-11T01:52:29;11.23;;;5.78;;
35330;SDS011;21441;52.190;20.910;2022-07-11T01:54:56;32.35;;;6.00;;
35330;SDS011;21441;52.190;20.910;2022-07-11T01:57:25;9.15;;;5.50;;
35330;SDS011;21441;52.190;20.910;2022-07-11T01:59:51;9.95;;;4.35;;
35330;SDS011;21441;52.190;20.910;2022-07-11T02:02:18;8.77;;;5.45;;
35330;SDS011;21441;52.190;20.910;2022-07-11T02:04:45;8.48;;;4.70;;
35330;SDS011;21441;52.190;20.910;2022-07-11T02:07:12;6.13;;;4.43;;
35330;SDS011;21441;52.190;20.910;2022-07-11T02:09:40;7.95;;;4.78;;
35330;SDS011;21441;52.190;20.910;2022-07-11T02:12:07;9.55;;;4.32;;
35330;SDS011;21441;52.190;20.910;2022-07-11T02:14:36;5.68;;;3.90;;
35330;SDS011;21441;52.190;20.910;2022-07-11T02:17:02;11.10;;;6.25;;
35330;SDS011;21441;52.190;20.910;2022-07-11T02:19:30;8.43;;;3.67;;
35330;SDS011;21441;52.190;20.910;2022-07-11T02:21:56;6.78;;;4.45;;
35330;SDS011;21441;52.190;20.910;2022-07-11T02:24:31;7.03;;;4.75;;
35330;SDS011;21441;52.190;20.910;2022-07-11T02:26:58;11.50;;;4.00;;
35330;SDS011;21441;52.190;20.910;2022-07-11T02:29:24;7.65;;;3.88;;
35330;SDS011;21441;52.190;20.910;2022-07-11T02:31:52;6.95;;;3.45;;
35330;SDS011;21441;52.190;20.910;2022-07-11T02:34:19;6.38;;;3.42;;
35330;SDS011;21441;52.190;20.910;2022-07-11T02:36:46;6.93;;;3.63;;
35330;SDS011;21441;52.190;20.910;2022-07-11T02:39:13;7.60;;;4.57;;
35330;SDS011;21441;52.190;20.910;2022-07-11T02:41:39;8.00;;;3.70;;
35330;SDS011;21441;52.190;20.910;2022-07-11T02:44:06;4.05;;;3.67;;
35330;SDS011;21441;52.190;20.910;2022-07-11T02:46:33;6.13;;;3.35;;
35330;SDS011;21441;52.190;20.910;2022-07-11T02:49:01;6.20;;;4.25;;
35330;SDS011;21441;52.190;20.910;2022-07-11T02:51:28;9.25;;;4.18;;
35330;SDS011;21441;52.190;20.910;2022-07-11T02:53:55;8.27;;;4.43;;
35330;SDS011;21441;52.190;20.910;2022-07-11T02:56:22;14.38;;;5.55;;
35330;SDS011;21441;52.190;20.910;2022-07-11T02:58:48;8.57;;;4.50;;
35330;SDS011;21441;52.190;20.910;2022-07-11T03:01:16;8.18;;;5.00;;
35330;SDS011;21441;52.190;20.910;2022-07-11T03:03:45;11.30;;;4.82;;
35330;SDS011;21441;52.190;20.910;2022-07-11T03:06:13;6.35;;;5.15;;
35330;SDS011;21441;52.190;20.910;2022-07-11T03:08:40;10.10;;;5.57;;
35330;SDS011;21441;52.190;20.910;2022-07-11T03:11:07;7.95;;;4.88;;
35330;SDS011;21441;52.190;20.910;2022-07-11T03:13:34;6.40;;;4.70;;
35330;SDS011;21441;52.190;20.910;2022-07-11T03:16:01;8.95;;;6.03;;
35330;SDS011;21441;52.190;20.910;2022-07-11T03:18:28;11.90;;;6.50;;
35330;SDS011;21441;52.190;20.910;2022-07-11T03:20:55;12.25;;;6.00;;
35330;SDS011;21441;52.190;20.910;2022-07-11T03:23:23;9.55;;;7.10;;
35330;SDS011;21441;52.190;20.910;2022-07-11T03:25:50;10.05;;;7.68;;
35330;SDS011;21441;52.190;20.910;2022-07-11T03:28:17;11.10;;;8.00;;
35330;SDS011;21441;52.190;20.910;2022-07-11T03:30:44;10.43;;;8.80;;
35330;SDS011;21441;52.190;20.910;2022-07-11T03:33:10;13.30;;;8.85;;
35330;SDS011;21441;52.190;20.910;2022-07-11T03:35:37;12.15;;;8.52;;
35330;SDS011;21441;52.190;20.910;2022-07-11T03:38:07;13.68;;;7.88;;
35330;SDS011;21441;52.190;20.910;2022-07-11T03:40:35;16.27;;;8.27;;
35330;SDS011;21441;52.190;20.910;2022-07-11T03:43:02;12.82;;;7.03;;
35330;SDS011;21441;52.190;20.910;2022-07-11T03:45:29;14.52;;;7.13;;
35330;SDS011;21441;52.190;20.910;2022-07-11T03:47:56;6.80;;;6.10;;
35330;SDS011;21441;52.190;20.910;2022-07-11T03:50:23;8.80;;;6.30;;
35330;SDS011;21441;52.190;20.910;2022-07-11T03:52:50;9.90;;;5.15;;
35330;SDS011;21441;52.190;20.910;2022-07-11T03:55:17;5.88;;;5.20;;
35330;SDS011;21441;52.190;20.910;2022-07-11T03:57:46;7.95;;;4.47;;
35330;SDS011;21441;52.190;20.910;2022-07-11T04:00:13;12.40;;;5.40;;
35330;SDS011;21441;52.190;20.910;2022-07-11T04:02:40;6.78;;;5.30;;
35330;SDS011;21441;52.190;20.910;2022-07-11T04:05:07;6.80;;;5.50;;
35330;SDS011;21441;52.190;20.910;2022-07-11T04:07:34;7.93;;;4.78;;
35330;SDS011;21441;52.190;20.910;2022-07-11T04:10:01;7.57;;;4.93;;
35330;SDS011;21441;52.190;20.910;2022-07-11T04:12:28;8.25;;;5.70;;
35330;SDS011;21441;52.190;20.910;2022-07-11T04:14:56;13.02;;;6.05;;
35330;SDS011;21441;52.190;20.910;2022-07-11T04:17:23;5.32;;;4.68;;
35330;SDS011;21441;52.190;20.910;2022-07-11T04:19:51;8.52;;;5.25;;
35330;SDS011;21441;52.190;20.910;2022-07-11T04:22:19;8.93;;;5.10;;
35330;SDS011;21441;52.190;20.910;2022-07-11T04:24:46;9.63;;;6.38;;
35330;SDS011;21441;52.190;20.910;2022-07-11T04:27:12;7.47;;;5.75;;
35330;SDS011;21441;52.190;20.910;2022-07-11T04:29:39;10.13;;;5.45;;
35330;SDS011;21441;52.190;20.910;2022-07-11T04:32:08;10.55;;;5.78;;
35330;SDS011;21441;52.190;20.910;2022-07-11T04:34:35;9.15;;;6.25;;
35330;SDS011;21441;52.190;20.910;2022-07-11T04:37:02;10.40;;;6.45;;
35330;SDS011;21441;52.190;20.910;2022-07-11T04:39:30;12.52;;;6.35;;
35330;SDS011;21441;52.190;20.910;2022-07-11T04:41:58;10.23;;;6.72;;
35330;SDS011;21441;52.190;20.910;2022-07-11T04:44:26;11.90;;;6.68;;
35330;SDS011;21441;52.190;20.910;2022-07-11T04:46:53;11.02;;;6.65;;
35330;SDS011;21441;52.190;20.910;2022-07-11T04:49:22;14.57;;;7.72;;
35330;SDS011;21441;52.190;20.910;2022-07-11T04:51:49;7.93;;;6.57;;
35330;SDS011;21441;52.190;20.910;2022-07-11T04:54:15;12.88;;;7.10;;
35330;SDS011;21441;52.190;20.910;2022-07-11T04:56:42;15.88;;;7.43;;
35330;SDS011;21441;52.190;20.910;2022-07-11T04:59:09;11.65;;;7.28;;
35330;SDS011;21441;52.190;20.910;2022-07-11T05:01:36;13.65;;;8.00;;
35330;SDS011;21441;52.190;20.910;2022-07-11T05:04:03;11.70;;;7.80;;
35330;SDS011;21441;52.190;20.910;2022-07-11T05:06:32;10.45;;;7.55;;
35330;SDS011;21441;52.190;20.910;2022-07-11T05:08:58;9.73;;;8.30;;
35330;SDS011;21441;52.190;20.910;2022-07-11T05:11:25;11.43;;;8.93;;
35330;SDS011;21441;52.190;20.910;2022-07-11T05:13:52;13.50;;;8.60;;
35330;SDS011;21441;52.190;20.910;2022-07-11T05:16:19;10.38;;;8.15;;
35330;SDS011;21441;52.190;20.910;2022-07-11T05:18:46;10.00;;;8.00;;
35330;SDS011;21441;52.190;20.910;2022-07-11T05:21:42;10.13;;;8.38;;
35330;SDS011;21441;52.190;20.910;2022-07-11T05:24:37;13.90;;;8.43;;
35330;SDS011;21441;52.190;20.910;2022-07-11T05:27:32;10.65;;;8.90;;
35330;SDS011;21441;52.190;20.910;2022-07-11T05:30:27;8.90;;;7.82;;
35330;SDS011;21441;52.190;20.910;2022-07-11T05:33:23;10.88;;;7.90;;
35330;SDS011;21441;52.190;20.910;2022-07-11T05:36:18;8.90;;;7.47;;
35330;SDS011;21441;52.190;20.910;2022-07-11T05:39:14;10.02;;;7.30;;
35330;SDS011;21441;52.190;20.910;2022-07-11T05:42:09;9.55;;;7.18;;
35330;SDS011;21441;52.190;20.910;2022-07-11T05:45:05;7.97;;;5.78;;
35330;SDS011;21441;52.190;20.910;2022-07-11T05:48:02;6.80;;;5.82;;
35330;SDS011;21441;52.190;20.910;2022-07-11T05:50:57;9.93;;;5.07;;
35330;SDS011;21441;52.190;20.910;2022-07-11T05:53:52;6.82;;;4.40;;
35330;SDS011;21441;52.190;20.910;2022-07-11T05:56:21;8.13;;;5.25;;
35330;SDS011;21441;52.190;20.910;2022-07-11T05:58:48;4.68;;;4.22;;
35330;SDS011;21441;52.190;20.910;2022-07-11T06:01:14;6.00;;;3.72;;
35330;SDS011;21441;52.190;20.910;2022-07-11T06:03:41;6.85;;;4.20;;
35330;SDS011;21441;52.190;20.910;2022-07-11T06:06:08;5.20;;;3.60;;
35330;SDS011;21441;52.190;20.910;2022-07-11T06:08:35;6.15;;;3.90;;
35330;SDS011;21441;52.190;20.910;2022-07-11T06:11:09;7.97;;;4.20;;
35330;SDS011;21441;52.190;20.910;2022-07-11T06:13:38;7.30;;;4.47;;
35330;SDS011;21441;52.190;20.910;2022-07-11T06:16:14;6.43;;;4.60;;
35330;SDS011;21441;52.190;20.910;2022-07-11T06:18:42;8.20;;;4.70;;
35330;SDS011;21441;52.190;20.910;2022-07-11T06:21:09;9.02;;;5.40;;
35330;SDS011;21441;52.190;20.910;2022-07-11T06:23:36;7.97;;;4.47;;
35330;SDS011;21441;52.190;20.910;2022-07-11T06:26:04;6.75;;;4.85;;
35330;SDS011;21441;52.190;20.910;2022-07-11T06:28:31;7.95;;;4.65;;
35330;SDS011;21441;52.190;20.910;2022-07-11T06:31:00;5.75;;;4.50;;
35330;SDS011;21441;52.190;20.910;2022-07-11T06:33:27;6.13;;;4.63;;
35330;SDS011;21441;52.190;20.910;2022-07-11T06:35:54;11.40;;;5.00;;
35330;SDS011;21441;52.190;20.910;2022-07-11T06:38:21;7.93;;;5.10;;
35330;SDS011;21441;52.190;20.910;2022-07-11T06:40:48;9.25;;;5.55;;
35330;SDS011;21441;52.190;20.910;2022-07-11T06:43:15;8.95;;;5.80;;
35330;SDS011;21441;52.190;20.910;2022-07-11T06:45:42;13.20;;;7.03;;
35330;SDS011;21441;52.190;20.910;2022-07-11T06:48:10;6.18;;;5.25;;
35330;SDS011;21441;52.190;20.910;2022-07-11T06:50:37;11.32;;;5.93;;
35330;SDS011;21441;52.190;20.910;2022-07-11T06:53:04;8.60;;;6.35;;
35330;SDS011;21441;52.190;20.910;2022-07-11T06:55:32;11.55;;;7.45;;
35330;SDS011;21441;52.190;20.910;2022-07-11T06:57:59;11.38;;;7.38;;
35330;SDS011;21441;52.190;20.910;2022-07-11T07:00:27;12.30;;;6.78;;
35330;SDS011;21441;52.190;20.910;2022-07-11T07:02:54;10.23;;;6.72;;
35330;SDS011;21441;52.190;20.910;2022-07-11T07:05:23;8.73;;;7.15;;
35330;SDS011;21441;52.190;20.910;2022-07-11T07:07:50;11.60;;;7.13;;
35330;SDS011;21441;52.190;20.910;2022-07-11T07:10:18;14.00;;;8.20;;
35330;SDS011;21441;52.190;20.910;2022-07-11T07:12:45;10.60;;;7.90;;
35330;SDS011;21441;52.190;20.910;2022-07-11T07:15:12;11.55;;;7.53;;
35330;SDS011;21441;52.190;20.910;2022-07-11T07:17:39;10.77;;;8.07;;
35330;SDS011;21441;52.190;20.910;2022-07-11T07:20:06;10.18;;;8.48;;
35330;SDS011;21441;52.190;20.910;2022-07-11T07:22:37;9.93;;;7.90;;
35330;SDS011;21441;52.190;20.910;2022-07-11T07:25:05;12.02;;;7.50;;
35330;SDS011;21441;52.190;20.910;2022-07-11T07:27:33;12.33;;;7.97;;
35330;SDS011;21441;52.190;20.910;2022-07-11T07:30:00;10.68;;;8.40;;
35330;SDS011;21441;52.190;20.910;2022-07-11T07:32:27;9.45;;;7.78;;
35330;SDS011;21441;52.190;20.910;2022-07-11T07:34:54;13.20;;;9.23;;
35330;SDS011;21441;52.190;20.910;2022-07-11T07:37:21;13.23;;;10.48;;
35330;SDS011;21441;52.190;20.910;2022-07-11T07:39:49;15.23;;;9.65;;
35330;SDS011;21441;52.190;20.910;2022-07-11T07:42:16;10.23;;;9.13;;
35330;SDS011;21441;52.190;20.910;2022-07-11T07:44:43;10.55;;;8.15;;
35330;SDS011;21441;52.190;20.910;2022-07-11T07:47:10;9.23;;;7.60;;
35330;SDS011;21441;52.190;20.910;2022-07-11T07:49:37;11.02;;;8.02;;
35330;SDS011;21441;52.190;20.910;2022-07-11T07:52:04;10.05;;;7.43;;
35330;SDS011;21441;52.190;20.910;2022-07-11T07:54:31;8.02;;;6.82;;
35330;SDS011;21441;52.190;20.910;2022-07-11T07:56:59;6.47;;;4.95;;
35330;SDS011;21441;52.190;20.910;2022-07-11T07:59:26;10.52;;;6.10;;
35330;SDS011;21441;52.190;20.910;2022-07-11T08:01:53;7.68;;;5.60;;
35330;SDS011;21441;52.190;20.910;2022-07-11T08:04:19;6.43;;;4.97;;
35330;SDS011;21441;52.190;20.910;2022-07-11T08:06:46;8.50;;;5.00;;
35330;SDS011;21441;52.190;20.910;2022-07-11T08:09:13;4.78;;;3.90;;
35330;SDS011;21441;52.190;20.910;2022-07-11T08:11:40;9.10;;;3.88;;
35330;SDS011;21441;52.190;20.910;2022-07-11T08:14:08;4.30;;;3.50;;
35330;SDS011;21441;52.190;20.910;2022-07-11T08:16:35;4.90;;;2.45;;
35330;SDS011;21441;52.190;20.910;2022-07-11T08:19:03;4.03;;;2.70;;
35330;SDS011;21441;52.190;20.910;2022-07-11T08:21:31;3.58;;;2.10;;
35330;SDS011;21441;52.190;20.910;2022-07-11T08:23:59;2.92;;;1.92;;
35330;SDS011;21441;52.190;20.910;2022-07-11T08:26:27;1.90;;;1.20;;
35330;SDS011;21441;52.190;20.910;2022-07-11T08:28:55;1.58;;;1.48;;
35330;SDS011;21441;52.190;20.910;2022-07-11T08:31:24;1.10;;;1.00;;
35330;SDS011;21441;52.190;20.910;2022-07-11T08:33:51;1.25;;;1.15;;
35330;SDS011;21441;52.190;20.910;2022-07-11T08:36:18;2.80;;;1.20;;
35330;SDS011;21441;52.190;20.910;2022-07-11T08:38:45;2.42;;;1.55;;
35330;SDS011;21441;52.190;20.910;2022-07-11T08:41:13;1.88;;;1.30;;
35330;SDS011;21441;52.190;20.910;2022-07-11T08:43:42;1.73;;;1.25;;
35330;SDS011;21441;52.190;20.910;2022-07-11T08:46:09;3.10;;;1.23;;
35330;SDS011;21441;52.190;20.910;2022-07-11T08:48:39;1.70;;;1.45;;
35330;SDS011;21441;52.190;20.910;2022-07-11T08:51:06;3.75;;;1.95;;
35330;SDS011;21441;52.190;20.910;2022-07-11T08:53:38;1.73;;;1.63;;
35330;SDS011;21441;52.190;20.910;2022-07-11T08:56:09;2.78;;;1.23;;
35330;SDS011;21441;52.190;20.910;2022-07-11T08:58:41;1.50;;;1.13;;
35330;SDS011;21441;52.190;20.910;2022-07-11T09:03:39;1.65;;;1.10;;
35330;SDS011;21441;52.190;20.910;2022-07-11T09:06:07;1.60;;;0.90;;
35330;SDS011;21441;52.190;20.910;2022-07-11T09:08:36;1.75;;;1.02;;
35330;SDS011;21441;52.190;20.910;2022-07-11T09:11:03;0.70;;;0.63;;
35330;SDS011;21441;52.190;20.910;2022-07-11T09:13:30;0.95;;;0.75;;
35330;SDS011;21441;52.190;20.910;2022-07-11T09:16:00;3.55;;;0.80;;
35330;SDS011;21441;52.190;20.910;2022-07-11T09:18:31;1.10;;;0.52;;
35330;SDS011;21441;52.190;20.910;2022-07-11T09:21:02;2.15;;;0.60;;
35330;SDS011;21441;52.190;20.910;2022-07-11T09:23:47;0.82;;;0.50;;
35330;SDS011;21441;52.190;20.910;2022-07-11T09:26:36;0.98;;;0.60;;
35330;SDS011;21441;52.190;20.910;2022-07-11T09:31:33;0.70;;;0.68;;
35330;SDS011;21441;52.190;20.910;2022-07-11T09:34:02;1.65;;;0.50;;
35330;SDS011;21441;52.190;20.910;2022-07-11T09:36:35;1.17;;;0.60;;
35330;SDS011;21441;52.190;20.910;2022-07-11T09:39:04;1.00;;;0.52;;
35330;SDS011;21441;52.190;20.910;2022-07-11T09:41:32;0.93;;;0.80;;
35330;SDS011;21441;52.190;20.910;2022-07-11T09:44:10;1.25;;;0.70;;
35330;SDS011;21441;52.190;20.910;2022-07-11T09:46:39;1.25;;;0.50;;
35330;SDS011;21441;52.190;20.910;2022-07-11T09:49:07;2.38;;;0.45;;
35330;SDS011;21441;52.190;20.910;2022-07-11T09:51:36;2.28;;;1.08;;
35330;SDS011;21441;52.190;20.910;2022-07-11T09:54:05;0.73;;;0.45;;
35330;SDS011;21441;52.190;20.910;2022-07-11T09:56:34;1.08;;;0.68;;
35330;SDS011;21441;52.190;20.910;2022-07-11T09:59:02;0.65;;;0.47;;
35330;SDS011;21441;52.190;20.910;2022-07-11T10:01:30;3.05;;;0.50;;
35330;SDS011;21441;52.190;20.910;2022-07-11T10:03:58;1.40;;;0.40;;
35330;SDS011;21441;52.190;20.910;2022-07-11T10:06:25;0.65;;;0.40;;
35330;SDS011;21441;52.190;20.910;2022-07-11T10:08:54;2.30;;;0.32;;
35330;SDS011;21441;52.190;20.910;2022-07-11T10:11:22;0.63;;;0.50;;
35330;SDS011;21441;52.190;20.910;2022-07-11T10:13:49;0.57;;;0.47;;
35330;SDS011;21441;52.190;20.910;2022-07-11T10:16:32;0.57;;;0.40;;
35330;SDS011;21441;52.190;20.910;2022-07-11T10:19:09;1.85;;;0.40;;
35330;SDS011;21441;52.190;20.910;2022-07-11T10:21:44;1.83;;;0.60;;
35330;SDS011;21441;52.190;20.910;2022-07-11T10:24:30;1.00;;;0.63;;
35330;SDS011;21441;52.190;20.910;2022-07-11T10:27:05;2.00;;;1.08;;
35330;SDS011;21441;52.190;20.910;2022-07-11T10:29:37;0.68;;;0.43;;
35330;SDS011;21441;52.190;20.910;2022-07-11T10:32:09;0.82;;;0.73;;
35330;SDS011;21441;52.190;20.910;2022-07-11T10:34:37;1.23;;;0.50;;
35330;SDS011;21441;52.190;20.910;2022-07-11T10:37:05;0.57;;;0.50;;
35330;SDS011;21441;52.190;20.910;2022-07-11T10:39:34;1.92;;;0.50;;
35330;SDS011;21441;52.190;20.910;2022-07-11T10:42:02;1.55;;;0.60;;
35330;SDS011;21441;52.190;20.910;2022-07-11T10:47:33;1.70;;;0.85;;
35330;SDS011;21441;52.190;20.910;2022-07-11T10:50:03;1.92;;;0.82;;
35330;SDS011;21441;52.190;20.910;2022-07-11T10:52:43;1.65;;;1.25;;
35330;SDS011;21441;52.190;20.910;2022-07-11T10:55:19;1.52;;;0.60;;
35330;SDS011;21441;52.190;20.910;2022-07-11T10:57:57;1.20;;;0.68;;
35330;SDS011;21441;52.190;20.910;2022-07-11T11:00:34;1.90;;;1.00;;
35330;SDS011;21441;52.190;20.910;2022-07-11T11:03:02;3.10;;;2.25;;
35330;SDS011;21441;52.190;20.910;2022-07-11T11:05:41;1.42;;;0.85;;
35330;SDS011;21441;52.190;20.910;2022-07-11T11:14:22;1.60;;;0.90;;
35330;SDS011;21441;52.190;20.910;2022-07-11T11:16:51;2.85;;;1.10;;
35330;SDS011;21441;52.190;20.910;2022-07-11T11:22:21;1.60;;;0.63;;
35330;SDS011;21441;52.190;20.910;2022-07-11T11:24:51;1.70;;;0.83;;
35330;SDS011;21441;52.190;20.910;2022-07-11T11:27:21;3.10;;;1.20;;
35330;SDS011;21441;52.190;20.910;2022-07-11T11:29:49;0.80;;;0.73;;
35330;SDS011;21441;52.190;20.910;2022-07-11T11:32:18;2.10;;;0.90;;
35330;SDS011;21441;52.190;20.910;2022-07-11T11:34:45;1.45;;;1.00;;
35330;SDS011;21441;52.190;20.910;2022-07-11T11:37:14;2.78;;;2.13;;
35330;SDS011;21441;52.190;20.910;2022-07-11T11:42:11;2.83;;;1.88;;
35330;SDS011;21441;52.190;20.910;2022-07-11T11:44:49;1.88;;;0.80;;
35330;SDS011;21441;52.190;20.910;2022-07-11T11:47:17;1.70;;;1.60;;
35330;SDS011;21441;52.190;20.910;2022-07-11T11:49:45;0.77;;;0.47;;
35330;SDS011;21441;52.190;20.910;2022-07-11T11:52:13;1.15;;;0.50;;
35330;SDS011;21441;52.190;20.910;2022-07-11T11:54:42;1.38;;;0.40;;
35330;SDS011;21441;52.190;20.910;2022-07-11T11:57:11;1.48;;;0.40;;
35330;SDS011;21441;52.190;20.910;2022-07-11T11:59:38;1.35;;;0.70;;
35330;SDS011;21441;52.190;20.910;2022-07-11T12:02:07;2.22;;;1.52;;
35330;SDS011;21441;52.190;20.910;2022-07-11T12:04:35;0.98;;;0.93;;
35330;SDS011;21441;52.190;20.910;2022-07-11T12:07:03;3.15;;;2.58;;
35330;SDS011;21441;52.190;20.910;2022-07-11T12:09:31;2.47;;;0.30;;
35330;SDS011;21441;52.190;20.910;2022-07-11T12:12:16;0.40;;;0.40;;
35330;SDS011;21441;52.190;20.910;2022-07-11T12:15:02;1.17;;;0.63;;
35330;SDS011;21441;52.190;20.910;2022-07-11T12:17:32;0.45;;;0.45;;
35330;SDS011;21441;52.190;20.910;2022-07-11T12:19:59;0.68;;;0.40;;
35330;SDS011;21441;52.190;20.910;2022-07-11T12:22:27;0.80;;;0.35;;
35330;SDS011;21441;52.190;20.910;2022-07-11T12:24:53;0.70;;;0.70;;
35330;SDS011;21441;52.190;20.910;2022-07-11T12:27:22;1.65;;;0.68;;
35330;SDS011;21441;52.190;20.910;2022-07-11T12:29:50;2.88;;;1.08;;
35330;SDS011;21441;52.190;20.910;2022-07-11T12:32:18;1.05;;;0.88;;
35330;SDS011;21441;52.190;20.910;2022-07-11T12:34:48;1.02;;;0.60;;
35330;SDS011;21441;52.190;20.910;2022-07-11T12:37:16;3.00;;;0.30;;
35330;SDS011;21441;52.190;20.910;2022-07-11T12:39:48;2.20;;;0.52;;
35330;SDS011;21441;52.190;20.910;2022-07-11T12:42:21;2.55;;;0.68;;
35330;SDS011;21441;52.190;20.910;2022-07-11T12:44:58;6.57;;;1.88;;
35330;SDS011;21441;52.190;20.910;2022-07-11T12:47:33;3.35;;;1.90;;
35330;SDS011;21441;52.190;20.910;2022-07-11T12:50:12;5.10;;;1.60;;
35330;SDS011;21441;52.190;20.910;2022-07-11T12:52:41;2.83;;;1.25;;
35330;SDS011;21441;52.190;20.910;2022-07-11T12:55:10;3.63;;;1.10;;
35330;SDS011;21441;52.190;20.910;2022-07-11T12:57:38;9.25;;;1.80;;
35330;SDS011;21441;52.190;20.910;2022-07-11T13:00:12;3.15;;;1.35;;
35330;SDS011;21441;52.190;20.910;2022-07-11T13:02:47;2.47;;;0.75;;
35330;SDS011;21441;52.190;20.910;2022-07-11T13:05:16;2.70;;;1.10;;
35330;SDS011;21441;52.190;20.910;2022-07-11T13:07:43;3.15;;;0.88;;
35330;SDS011;21441;52.190;20.910;2022-07-11T13:10:28;4.20;;;1.08;;
35330;SDS011;21441;52.190;20.910;2022-07-11T13:13:15;1.60;;;0.88;;
35330;SDS011;21441;52.190;20.910;2022-07-11T13:15:43;6.93;;;1.95;;
35330;SDS011;21441;52.190;20.910;2022-07-11T13:18:11;1.83;;;0.80;;
35330;SDS011;21441;52.190;20.910;2022-07-11T13:20:40;2.20;;;0.85;;
35330;SDS011;21441;52.190;20.910;2022-07-11T13:23:07;3.08;;;1.40;;
35330;SDS011;21441;52.190;20.910;2022-07-11T13:25:34;3.85;;;1.00;;
35330;SDS011;21441;52.190;20.910;2022-07-11T13:28:01;3.03;;;0.90;;
35330;SDS011;21441;52.190;20.910;2022-07-11T13:30:28;2.25;;;0.85;;
35330;SDS011;21441;52.190;20.910;2022-07-11T13:32:56;2.95;;;1.20;;
35330;SDS011;21441;52.190;20.910;2022-07-11T13:35:24;3.42;;;1.10;;
35330;SDS011;21441;52.190;20.910;2022-07-11T13:37:53;3.17;;;0.82;;
35330;SDS011;21441;52.190;20.910;2022-07-11T13:40:20;2.20;;;1.15;;
35330;SDS011;21441;52.190;20.910;2022-07-11T13:42:49;2.65;;;0.90;;
35330;SDS011;21441;52.190;20.910;2022-07-11T13:45:16;1.92;;;1.35;;
35330;SDS011;21441;52.190;20.910;2022-07-11T13:47:44;1.77;;;1.10;;
35330;SDS011;21441;52.190;20.910;2022-07-11T13:50:12;4.18;;;0.82;;
35330;SDS011;21441;52.190;20.910;2022-07-11T13:52:39;2.28;;;1.05;;
35330;SDS011;21441;52.190;20.910;2022-07-11T13:55:08;1.90;;;1.02;;
35330;SDS011;21441;52.190;20.910;2022-07-11T13:57:36;8.77;;;4.57;;
35330;SDS011;21441;52.190;20.910;2022-07-11T14:00:03;2.30;;;1.10;;
35330;SDS011;21441;52.190;20.910;2022-07-11T14:02:31;4.18;;;1.25;;
35330;SDS011;21441;52.190;20.910;2022-07-11T14:04:58;3.38;;;1.45;;
35330;SDS011;21441;52.190;20.910;2022-07-11T14:07:25;2.58;;;1.42;;
35330;SDS011;21441;52.190;20.910;2022-07-11T14:09:52;2.53;;;1.40;;
35330;SDS011;21441;52.190;20.910;2022-07-11T14:12:21;3.67;;;2.03;;
35330;SDS011;21441;52.190;20.910;2022-07-11T14:14:48;3.88;;;1.85;;
35330;SDS011;21441;52.190;20.910;2022-07-11T14:17:15;5.93;;;1.88;;
35330;SDS011;21441;52.190;20.910;2022-07-11T14:19:42;1.67;;;1.05;;
35330;SDS011;21441;52.190;20.910;2022-07-11T14:22:09;3.35;;;2.28;;
35330;SDS011;21441;52.190;20.910;2022-07-11T14:24:36;2.58;;;1.30;;
35330;SDS011;21441;52.190;20.910;2022-07-11T14:27:03;4.32;;;1.75;;
35330;SDS011;21441;52.190;20.910;2022-07-11T14:29:32;4.65;;;1.70;;
35330;SDS011;21441;52.190;20.910;2022-07-11T14:32:00;5.25;;;1.30;;
35330;SDS011;21441;52.190;20.910;2022-07-11T14:34:28;2.17;;;1.35;;
35330;SDS011;21441;52.190;20.910;2022-07-11T14:36:56;4.10;;;1.20;;
35330;SDS011;21441;52.190;20.910;2022-07-11T14:39:23;3.65;;;1.23;;
35330;SDS011;21441;52.190;20.910;2022-07-11T14:41:49;2.63;;;1.55;;
35330;SDS011;21441;52.190;20.910;2022-07-11T14:44:17;1.92;;;1.15;;
35330;SDS011;21441;52.190;20.910;2022-07-11T14:46:45;2.45;;;1.40;;
35330;SDS011;21441;52.190;20.910;2022-07-11T14:49:12;2.92;;;1.50;;
35330;SDS011;21441;52.190;20.910;2022-07-11T14:51:39;2.05;;;1.05;;
35330;SDS011;21441;52.190;20.910;2022-07-11T14:54:06;1.40;;;1.13;;
35330;SDS011;21441;52.190;20.910;2022-07-11T14:56:33;2.28;;;1.00;;
35330;SDS011;21441;52.190;20.910;2022-07-11T14:59:00;1.55;;;1.40;;
35330;SDS011;21441;52.190;20.910;2022-07-11T15:01:27;1.73;;;1.45;;
35330;SDS011;21441;52.190;20.910;2022-07-11T15:03:55;2.60;;;1.75;;